Time;durP1;ratioP1;P1;durP2;ratioP2;P2;SDS_P1;SDS_P2;PMS_P1;PMS_P2;Temp;Humidity;BMP_temperature;BMP_pressure;BME280_temperature;BME280_humidity;BME280_pressure;Samples;Min_cycle;Max_cycle;Signal;HPM_P1;HPM_P2
2023/09/02 00:01:00;;;;;;;;;;;18.20;57.40;;;14.29;100.00;95668.25;5041933;23;19920;-49
2023/09/02 00:03:26;;;;;;;;;;;18.20;57.40;;;14.26;100.00;95657.31;5029985;28;19967;-44
2023/09/02 00:05:53;;;;;;;;;;;18.30;57.50;;;14.26;100.00;95654.63;5031702;28;19909;-44
2023/09/02 00:08:18;;;;;;;;;;;18.20;57.40;;;14.24;100.00;95664.84;5031235;28;19909;-46
2023/09/02 00:10:44;;;;;;;;;;;18.20;57.50;;;14.28;100.00;95671.22;5031589;28;19909;-46
2023/09/02 00:13:10;;;;;;;;;;;18.20;57.60;;;14.26;100.00;95674.19;5027345;28;19909;-48
2023/09/02 00:15:35;;;;;;;;;;;18.20;57.70;;;14.31;100.00;95670.63;5031837;28;19913;-46
2023/09/02 00:18:01;;;;;;;;;;;18.20;57.70;;;14.32;100.00;95670.38;5021463;28;19908;-46
2023/09/02 00:20:27;;;;;;;;;;;18.20;57.80;;;14.30;100.00;95675.19;5028869;28;20291;-48
2023/09/02 00:22:53;;;;;;;;;;;18.20;57.80;;;14.26;100.00;95671.50;5021660;28;19921;-46
2023/09/02 00:25:18;;;;;;;;;;;18.20;57.80;;;14.18;100.00;95668.66;5028119;28;19947;-44
2023/09/02 00:27:44;;;;;;;;;;;18.20;57.80;;;14.12;100.00;95671.38;5023622;28;20363;-44
2023/09/02 00:30:10;;;;;;;;;;;18.10;57.80;;;14.09;100.00;95671.16;5028973;28;20384;-45
2023/09/02 00:32:36;;;;;;;;;;;18.10;57.90;;;14.14;100.00;95670.31;5028401;28;19916;-46
2023/09/02 00:35:02;;;;;;;;;;;18.10;57.90;;;14.09;100.00;95666.59;5030969;28;19998;-48
2023/09/02 00:37:28;;;;;;;;;;;18.10;57.90;;;14.02;100.00;95662.66;5020070;28;19909;-48
2023/09/02 00:39:54;;;;;;;;;;;18.00;57.90;;;13.98;100.00;95656.28;5030388;28;19908;-44
2023/09/02 00:42:23;;;;;;;;;;;18.00;57.90;;;13.94;100.00;95661.38;5009180;28;19909;-50
2023/09/02 00:44:49;;;;;;;;;;;17.90;58.00;;;13.87;100.00;95659.03;5029549;28;20263;-44
2023/09/02 00:47:15;;;;;;;;;;;17.90;58.10;;;13.84;100.00;95659.59;5011093;28;19912;-44
2023/09/02 00:49:41;;;;;;;;;;;17.90;58.20;;;13.82;100.00;95661.78;5022860;28;20352;-45
2023/09/02 00:52:06;;;;;;;;;;;17.80;58.20;;;13.82;100.00;95664.47;5024029;28;19915;-44
2023/09/02 00:54:33;;;;;;;;;;;17.80;58.30;;;13.77;100.00;95661.81;5021713;28;19909;-45
2023/09/02 00:57:00;;;;;;;;;;;17.80;58.40;;;13.73;100.00;95668.84;5022743;28;19909;-45
2023/09/02 00:59:25;;;;;;;;;;;17.80;58.40;;;13.68;100.00;95662.72;5012563;28;19980;-47
2023/09/02 01:01:55;;;;;;;;;;;17.70;58.40;;;13.62;100.00;95660.09;5022574;28;20019;-47
2023/09/02 01:04:21;;;;;;;;;;;17.70;58.50;;;13.59;100.00;95667.88;5012932;28;19936;-44
2023/09/02 01:06:47;;;;;;;;;;;17.70;58.60;;;13.59;100.00;95668.69;5027218;28;19915;-44
2023/09/02 01:09:14;;;;;;;;;;;17.60;58.60;;;13.57;100.00;95673.53;5030359;28;19912;-44
2023/09/02 01:11:39;;;;;;;;;;;17.60;58.70;;;13.50;100.00;95681.06;5009472;28;20244;-43
2023/09/02 01:14:05;;;;;;;;;;;17.50;58.70;;;13.48;100.00;95677.88;5023932;28;19912;-51
2023/09/02 01:16:31;;;;;;;;;;;17.50;58.80;;;13.45;100.00;95673.09;5017231;28;19909;-46
2023/09/02 01:18:58;;;;;;;;;;;17.50;58.90;;;13.46;100.00;95672.00;5029598;28;19909;-45
2023/09/02 01:21:26;;;;;;;;;;;17.50;58.90;;;13.42;100.00;95673.66;5016712;28;19944;-46
2023/09/02 01:24:19;;;;;;;;;;;17.40;58.90;;;13.34;100.00;95677.72;5032571;28;19919;-51
2023/09/02 01:27:15;;;;;;;;;;;17.40;59.00;;;13.33;100.00;95675.31;5024063;28;20369;-44
2023/09/02 01:30:08;;;;;;;;;;;17.40;59.10;;;13.34;100.00;95685.75;5016657;28;20329;-45
2023/09/02 01:32:47;;;;;;;;;;;17.30;59.20;;;13.26;100.00;95681.00;5015851;28;20323;-46
2023/09/02 01:35:20;;;;;;;;;;;17.30;59.20;;;13.25;100.00;95679.38;5034208;28;19915;-44
2023/09/02 01:37:55;;;;;;;;;;;17.30;59.80;;;13.20;100.00;95676.72;5022438;28;19916;-46
2023/09/02 01:40:25;;;;;;;;;;;17.20;59.30;;;13.20;100.00;95677.53;5027205;28;19908;-45
2023/09/02 01:42:52;;;;;;;;;;;17.20;59.40;;;13.20;100.00;95682.88;5015845;28;19920;-46
2023/09/02 01:45:19;;;;;;;;;;;17.20;59.40;;;13.15;100.00;95677.53;5034043;28;20329;-44
2023/09/02 01:47:50;;;;;;;;;;;17.20;59.50;;;13.13;100.00;95682.41;5024857;28;19913;-44
2023/09/02 01:50:21;;;;;;;;;;;17.20;59.50;;;13.12;100.00;95679.97;5027977;28;19916;-47
2023/09/02 01:52:48;;;;;;;;;;;17.20;59.60;;;13.10;100.00;95682.13;5012751;28;19913;-47
2023/09/02 01:55:15;;;;;;;;;;;17.10;59.50;;;13.08;100.00;95681.63;5007715;28;19909;-51
2023/09/02 01:57:42;;;;;;;;;;;17.10;59.60;;;13.07;100.00;95678.16;5012612;28;19940;-46
2023/09/02 02:00:08;;;;;;;;;;;17.10;59.60;;;13.07;100.00;95683.50;5029269;28;19916;-45
2023/09/02 02:02:38;;;;;;;;;;;17.10;59.70;;;13.02;100.00;95683.53;5023048;28;19917;-50
2023/09/02 02:05:07;;;;;;;;;;;17.00;59.70;;;12.99;100.00;95685.97;5030126;28;19989;-47
2023/09/02 02:07:43;;;;;;;;;;;17.00;59.70;;;12.94;100.00;95676.91;5015602;28;20379;-46
2023/09/02 02:10:19;;;;;;;;;;;17.00;59.80;;;12.95;100.00;95686.50;5019686;28;19959;-44
2023/09/02 02:12:44;;;;;;;;;;;17.00;59.90;;;12.94;100.00;95681.44;5032641;28;19956;-44
2023/09/02 02:15:11;;;;;;;;;;;17.00;59.90;;;12.93;100.00;95682.50;5015563;28;19983;-44
2023/09/02 02:17:39;;;;;;;;;;;17.00;60.00;;;12.90;100.00;95683.06;5015684;28;19964;-43
2023/09/02 02:20:06;;;;;;;;;;;16.90;60.00;;;12.87;100.00;95684.41;5025615;28;20571;-45
2023/09/02 02:22:32;;;;;;;;;;;16.90;60.00;;;12.86;100.00;95685.50;5027006;28;19913;-47
2023/09/02 02:24:58;;;;;;;;;;;16.90;60.10;;;12.84;100.00;95682.28;5030089;28;19919;-43
2023/09/02 02:27:23;;;;;;;;;;;16.90;60.20;;;12.83;100.00;95680.69;5020091;28;19917;-45
2023/09/02 02:29:49;;;;;;;;;;;16.90;60.20;;;12.80;100.00;95683.91;5032562;28;19940;-47
2023/09/02 02:32:15;;;;;;;;;;;16.80;60.90;;;12.79;100.00;95689.56;5031082;28;19909;-45
2023/09/02 02:34:41;;;;;;;;;;;16.90;60.30;;;12.75;100.00;95683.94;5019565;28;19915;-44
2023/09/02 02:37:06;;;;;;;;;;;16.80;60.30;;;12.72;100.00;95692.50;5032170;28;19909;-47
2023/09/02 02:39:33;;;;;;;;;;;16.80;60.30;;;12.69;100.00;95685.03;5032417;28;19912;-47
2023/09/02 02:41:58;;;;;;;;;;;16.70;60.30;;;12.70;100.00;95689.31;5023351;28;20003;-44
2023/09/02 02:44:24;;;;;;;;;;;16.80;60.50;;;12.72;100.00;95689.84;5027637;28;19978;-45
2023/09/02 02:46:50;;;;;;;;;;;16.80;60.60;;;12.74;100.00;95693.03;5033222;28;19966;-45
2023/09/02 02:49:16;;;;;;;;;;;16.70;60.70;;;12.74;100.00;95693.84;5010506;28;19959;-44
2023/09/02 02:51:41;;;;;;;;;;;16.70;60.80;;;12.75;100.00;95697.31;5022997;28;19912;-45
2023/09/02 02:54:07;;;;;;;;;;;16.80;60.90;;;12.73;100.00;95691.44;5019321;28;19931;-46
2023/09/02 02:56:33;;;;;;;;;;;16.80;60.90;;;12.72;100.00;95697.84;5030393;28;20390;-48
2023/09/02 02:58:59;;;;;;;;;;;16.80;61.80;;;12.70;100.00;95703.50;5018623;28;19955;-47
2023/09/02 03:01:26;;;;;;;;;;;16.80;61.00;;;12.65;100.00;95703.50;5023429;28;20426;-45
2023/09/02 03:03:51;;;;;;;;;;;16.80;61.00;;;12.65;100.00;95702.72;5028627;28;20008;-43
2023/09/02 03:06:18;;;;;;;;;;;16.70;61.00;;;12.61;100.00;95699.00;5023106;28;20015;-46
2023/09/02 03:08:44;;;;;;;;;;;16.70;61.00;;;12.62;100.00;95703.25;5018142;28;20357;-45
2023/09/02 03:11:10;;;;;;;;;;;16.70;61.00;;;12.59;100.00;95698.44;5014288;28;20588;-46
2023/09/02 03:13:37;;;;;;;;;;;16.70;61.10;;;12.55;100.00;95698.22;5021690;28;19909;-48
2023/09/02 03:16:04;;;;;;;;;;;16.70;61.10;;;12.54;100.00;95693.94;5022578;28;19915;-49
2023/09/02 03:18:31;;;;;;;;;;;16.60;61.10;;;12.52;100.00;95700.63;5029376;28;19954;-46
2023/09/02 03:21:07;;;;;;;;;;;16.60;61.20;;;12.49;100.00;95697.41;5021606;28;19909;-49
2023/09/02 03:23:34;;;;;;;;;;;16.60;61.20;;;12.46;100.00;95699.84;5025705;28;19947;-46
2023/09/02 03:26:17;;;;;;;;;;;16.60;61.20;;;12.40;100.00;95696.38;5023328;28;19909;-48
2023/09/02 03:28:44;;;;;;;;;;;16.60;61.30;;;12.39;100.00;95691.34;5024951;28;19909;-46
2023/09/02 03:31:11;;;;;;;;;;;16.50;61.20;;;12.36;100.00;95703.34;5024271;28;19908;-44
2023/09/02 03:33:37;;;;;;;;;;;16.50;61.20;;;12.36;100.00;95702.56;5015617;28;19909;-46
2023/09/02 03:36:04;;;;;;;;;;;16.50;61.30;;;12.35;100.00;95698.31;5026359;28;19954;-44
2023/09/02 03:38:30;;;;;;;;;;;16.50;61.40;;;12.35;100.00;95695.63;5023207;28;19916;-46
2023/09/02 03:40:56;;;;;;;;;;;16.40;61.50;;;12.33;100.00;95692.41;5025868;28;20463;-46
2023/09/02 03:43:22;;;;;;;;;;;16.40;61.60;;;12.34;100.00;95696.69;5030471;28;19916;-54
2023/09/02 03:45:48;;;;;;;;;;;16.40;61.60;;;12.30;100.00;95696.44;5012523;28;20294;-44
2023/09/02 03:48:20;;;;;;;;;;;16.40;61.60;;;12.26;100.00;95701.53;5019519;28;19952;-46
2023/09/02 03:51:18;;;;;;;;;;;16.40;61.60;;;12.24;100.00;95709.00;5016906;28;19909;-44
2023/09/02 03:53:44;;;;;;;;;;;16.30;61.70;;;12.21;100.00;95706.88;4998184;28;19944;-44
2023/09/02 03:56:10;;;;;;;;;;;16.30;61.80;;;12.17;100.00;95705.81;5030568;28;20343;-44
2023/09/02 03:58:36;;;;;;;;;;;16.30;61.80;;;12.21;100.00;95706.06;5018915;28;20387;-49
2023/09/02 04:01:05;;;;;;;;;;;16.30;61.90;;;12.23;100.00;95707.41;5024441;28;19917;-45
2023/09/02 04:03:36;;;;;;;;;;;16.30;62.00;;;12.23;100.00;95711.94;5024245;28;19923;-47
2023/09/02 04:06:03;;;;;;;;;;;16.30;62.00;;;12.20;100.00;95715.97;5019019;28;19943;-44
2023/09/02 04:08:33;;;;;;;;;;;16.30;62.10;;;12.20;100.00;95713.28;5028537;28;19986;-46
2023/09/02 04:11:01;;;;;;;;;;;16.30;62.20;;;12.21;100.00;95714.09;5030842;28;19993;-46
2023/09/02 04:13:30;;;;;;;;;;;16.30;62.20;;;12.21;100.00;95708.75;5014804;28;19916;-44
2023/09/02 04:15:57;;;;;;;;;;;16.20;62.20;;;12.20;100.00;95707.16;5019403;28;20078;-45
2023/09/02 04:18:24;;;;;;;;;;;16.20;62.20;;;12.16;100.00;95720.25;5029587;28;20015;-53
2023/09/02 04:20:50;;;;;;;;;;;16.20;62.30;;;12.14;100.00;95717.03;5029724;28;19916;-45
2023/09/02 04:23:16;;;;;;;;;;;16.20;62.30;;;12.12;100.00;95716.50;5029534;28;19912;-44
2023/09/02 04:25:46;;;;;;;;;;;16.20;62.30;;;12.09;100.00;95722.38;5020433;28;19912;-45
2023/09/02 04:28:13;;;;;;;;;;;16.20;62.40;;;12.09;100.00;95722.38;5028858;28;20012;-45
2023/09/02 04:30:40;;;;;;;;;;;16.20;62.40;;;12.06;100.00;95725.59;5018787;28;20355;-45
2023/09/02 04:33:06;;;;;;;;;;;16.20;62.50;;;12.05;100.00;95724.00;5031195;28;19909;-47
2023/09/02 04:35:43;;;;;;;;;;;16.20;62.50;;;11.95;100.00;95718.69;5020724;28;20429;-45
2023/09/02 04:38:10;;;;;;;;;;;16.20;62.40;;;11.92;100.00;95719.22;5028707;28;19908;-45
2023/09/02 04:40:38;;;;;;;;;;;16.10;62.40;;;11.90;100.00;95718.69;5030451;28;19908;-45
2023/09/02 04:43:05;;;;;;;;;;;16.10;62.40;;;11.88;100.00;95729.63;5029761;28;19935;-44
2023/09/02 04:45:33;;;;;;;;;;;16.10;62.50;;;11.91;100.00;95728.28;5018400;28;19965;-45
2023/09/02 04:47:59;;;;;;;;;;;16.10;62.60;;;11.94;100.00;95723.22;5030106;28;20003;-45
2023/09/02 04:50:25;;;;;;;;;;;16.10;62.70;;;11.99;100.00;95727.75;5016780;28;19917;-48
2023/09/02 04:52:51;;;;;;;;;;;16.10;62.90;;;12.01;100.00;95722.94;5024220;28;20400;-50
2023/09/02 04:55:19;;;;;;;;;;;16.10;62.90;;;12.02;100.00;95729.88;5022731;28;19947;-46
2023/09/02 04:57:46;;;;;;;;;;;16.10;62.90;;;12.01;100.00;95725.63;5017458;28;19917;-46
2023/09/02 05:00:13;;;;;;;;;;;16.10;62.90;;;12.01;100.00;95733.63;5021389;28;19912;-47
2023/09/02 05:02:44;;;;;;;;;;;16.20;62.90;;;12.01;100.00;95731.75;5021249;28;19919;-45
2023/09/02 05:05:10;;;;;;;;;;;16.20;62.90;;;12.02;100.00;95738.69;5033286;28;20359;-47
2023/09/02 05:07:36;;;;;;;;;;;16.20;62.90;;;12.10;100.00;95736.56;5031418;28;19912;-46
2023/09/02 05:10:02;;;;;;;;;;;16.20;63.00;;;12.21;100.00;95738.91;5020655;28;19913;-46
2023/09/02 05:12:28;;;;;;;;;;;16.20;63.00;;;12.34;100.00;95739.41;5015927;28;19916;-50
2023/09/02 05:14:53;;;;;;;;;;;16.30;63.10;;;12.49;100.00;95747.38;5021174;28;19909;-48
2023/09/02 05:17:19;;;;;;;;;;;16.40;63.30;;;12.62;100.00;95741.47;5021685;28;19909;-49
2023/09/02 05:19:45;;;;;;;;;;;16.50;63.40;;;12.76;100.00;95749.72;5023222;28;20394;-53
2023/09/02 05:22:11;;;;;;;;;;;16.60;63.40;;;12.87;100.00;95748.56;5026877;28;20012;-47
2023/09/02 05:24:36;;;;;;;;;;;16.80;63.50;;;13.02;100.00;95758.41;5026654;28;19920;-45
2023/09/02 05:27:03;;;;;;;;;;;16.90;63.50;;;13.18;100.00;95762.59;5003775;28;20427;-44
2023/09/02 05:29:28;;;;;;;;;;;17.10;63.50;;;13.34;100.00;95766.00;5033454;28;19909;-45
2023/09/02 05:31:54;;;;;;;;;;;17.20;63.30;;;13.49;100.00;95765.09;5020081;28;19909;-48
2023/09/02 05:34:20;;;;;;;;;;;17.40;63.30;;;13.65;100.00;95763.13;5014818;28;19909;-46
2023/09/02 05:36:45;;;;;;;;;;;17.60;63.20;;;13.79;100.00;95772.13;5028946;28;19958;-50
2023/09/02 05:39:12;;;;;;;;;;;17.80;63.10;;;13.89;100.00;95771.25;5032015;28;19958;-46
2023/09/02 05:41:39;;;;;;;;;;;18.00;62.90;;;13.96;100.00;95773.59;5018886;28;19947;-47
2023/09/02 05:44:05;;;;;;;;;;;18.20;62.70;;;13.95;100.00;95770.13;5024883;28;19966;-47
2023/09/02 05:46:30;;;;;;;;;;;18.30;62.60;;;14.06;100.00;95770.81;5013740;28;19959;-45
2023/09/02 05:48:56;;;;;;;;;;;18.40;62.40;;;14.09;100.00;95776.41;5015773;28;19908;-47
2023/09/02 05:51:22;;;;;;;;;;;18.70;62.40;;;14.18;100.00;95779.28;5033901;28;19908;-50
2023/09/02 05:53:48;;;;;;;;;;;18.90;62.30;;;14.45;100.00;95776.06;5020909;28;19941;-45
2023/09/02 05:56:13;;;;;;;;;;;19.10;62.20;;;14.86;100.00;95774.84;5032694;28;19913;-45
2023/09/02 05:58:39;;;;;;;;;;;19.40;62.10;;;15.19;100.00;95779.22;5020290;28;19915;-45
2023/09/02 06:01:05;;;;;;;;;;;19.80;62.00;;;15.53;100.00;95780.13;5026739;28;19963;-47
2023/09/02 06:03:31;;;;;;;;;;;20.10;61.70;;;15.79;100.00;95786.72;5033241;28;19936;-45
2023/09/02 06:05:57;;;;;;;;;;;20.50;61.50;;;15.98;100.00;95789.38;5026321;28;20268;-45
2023/09/02 06:08:24;;;;;;;;;;;20.80;61.10;;;16.24;100.00;95783.59;5019185;28;20288;-53
2023/09/02 06:10:59;;;;;;;;;;;21.10;60.70;;;16.50;100.00;95790.13;5020685;28;19912;-50
2023/09/02 06:13:26;;;;;;;;;;;21.60;60.30;;;16.82;100.00;95799.22;5030261;28;20456;-50
2023/09/02 06:15:52;;;;;;;;;;;21.90;60.00;;;17.10;100.00;95810.78;5012141;28;19962;-47
2023/09/02 06:18:17;;;;;;;;;;;22.20;59.70;;;17.30;100.00;95801.50;5021683;28;19909;-45
2023/09/02 06:20:43;;;;;;;;;;;22.50;59.40;;;17.44;100.00;95790.69;5019901;28;20386;-46
2023/09/02 06:23:09;;;;;;;;;;;22.90;59.00;;;17.63;100.00;95788.66;5028956;28;19913;-52
2023/09/02 06:25:35;;;;;;;;;;;23.20;58.70;;;17.78;97.64;95785.63;5031864;28;19912;-47
2023/09/02 06:28:00;;;;;;;;;;;23.40;58.40;;;18.00;95.86;95792.13;5019630;28;19992;-45
2023/09/02 06:30:26;;;;;;;;;;;23.70;58.10;;;18.21;94.23;95797.84;5023765;28;19909;-51
2023/09/02 06:32:52;;;;;;;;;;;24.00;57.80;;;18.41;93.75;95799.22;5029598;28;20381;-53
2023/09/02 06:35:17;;;;;;;;;;;24.20;57.50;;;18.68;93.00;95801.75;5021581;28;19908;-48
2023/09/02 06:37:43;;;;;;;;;;;24.50;57.20;;;18.98;89.67;95807.44;5031044;28;20008;-50
2023/09/02 06:40:10;;;;;;;;;;;24.80;57.00;;;19.22;87.49;95807.03;5024698;28;19986;-45
2023/09/02 06:42:35;;;;;;;;;;;25.10;56.80;;;19.35;86.21;95802.63;5013335;28;19995;-47
2023/09/02 06:45:02;;;;;;;;;;;25.40;56.40;;;19.60;85.83;95807.25;5024846;28;20355;-46
2023/09/02 06:47:28;;;;;;;;;;;25.60;56.10;;;19.91;83.73;95809.06;5027293;28;19909;-48
2023/09/02 06:49:54;;;;;;;;;;;25.90;55.90;;;20.14;82.94;95801.56;5031266;28;19916;-46
2023/09/02 06:52:19;;;;;;;;;;;26.20;55.80;;;20.29;80.31;95813.78;5031531;28;20022;-48
2023/09/02 06:54:48;;;;;;;;;;;26.50;55.50;;;20.41;80.26;95822.03;5019061;28;20003;-45
2023/09/02 06:57:15;;;;;;;;;;;26.60;55.10;;;20.67;79.73;95821.22;5020848;28;19909;-47
2023/09/02 06:59:40;;;;;;;;;;;26.80;54.80;;;20.88;77.64;95821.31;5032348;28;19995;-45
2023/09/02 07:02:06;;;;;;;;;;;27.10;54.60;;;21.12;76.79;95826.94;5026858;28;20023;-46
2023/09/02 07:04:32;;;;;;;;;;;27.30;54.40;;;21.32;75.40;95833.53;5029981;28;20011;-45
2023/09/02 07:06:57;;;;;;;;;;;27.60;54.20;;;21.61;75.78;95835.44;5019616;28;20389;-46
2023/09/02 07:09:23;;;;;;;;;;;27.80;54.50;;;21.91;73.64;95843.56;5032308;28;19908;-46
2023/09/02 07:11:49;;;;;;;;;;;28.10;53.80;;;21.99;71.92;95839.16;5017825;28;19909;-49
2023/09/02 07:14:14;;;;;;;;;;;28.30;53.50;;;22.08;71.65;95842.59;5027980;28;19920;-49
2023/09/02 07:16:40;;;;;;;;;;;28.50;53.20;;;22.47;70.69;95840.53;5028874;28;20360;-46
2023/09/02 07:19:06;;;;;;;;;;;28.80;53.00;;;22.71;70.74;95846.03;5028647;28;19909;-46
2023/09/02 07:21:32;;;;;;;;;;;29.00;52.70;;;22.92;67.96;95856.03;5031160;28;19908;-48
2023/09/02 07:23:57;;;;;;;;;;;29.20;52.40;;;23.23;66.68;95853.59;5024575;28;19931;-48
2023/09/02 07:26:23;;;;;;;;;;;29.40;52.20;;;23.40;65.78;95851.78;5023378;28;20280;-46
2023/09/02 07:28:49;;;;;;;;;;;29.70;52.00;;;23.55;64.83;95868.22;5031703;28;19912;-52
2023/09/02 07:31:15;;;;;;;;;;;29.80;51.70;;;23.44;63.94;95864.38;5023230;28;20282;-46
2023/09/02 07:33:41;;;;;;;;;;;30.00;51.40;;;23.57;63.58;95862.44;5032109;28;19909;-48
2023/09/02 07:36:09;;;;;;;;;;;30.10;51.10;;;23.58;63.24;95858.59;5030484;28;19913;-46
2023/09/02 07:38:37;;;;;;;;;;;30.10;50.90;;;23.58;62.64;95855.88;5021673;28;19940;-46
2023/09/02 07:41:02;;;;;;;;;;;30.20;50.80;;;23.73;61.94;95863.34;5018539;28;19909;-46
2023/09/02 07:43:29;;;;;;;;;;;30.30;50.50;;;23.94;61.73;95860.50;5030264;28;19959;-46
2023/09/02 07:45:55;;;;;;;;;;;30.40;50.30;;;24.04;61.01;95856.50;5018678;28;19924;-46
2023/09/02 07:48:21;;;;;;;;;;;30.50;50.00;;;24.37;60.54;95858.19;5038325;23;20379;-46
2023/09/02 07:50:47;;;;;;;;;;;30.70;49.90;;;24.65;59.60;95860.94;5026728;28;20313;-48
2023/09/02 07:53:14;;;;;;;;;;;30.80;49.60;;;24.93;59.56;95863.63;5021777;28;20003;-46
2023/09/02 07:55:41;;;;;;;;;;;31.00;49.40;;;25.15;57.99;95873.16;5024124;28;20375;-46
2023/09/02 07:58:07;;;;;;;;;;;31.20;49.90;;;25.28;56.21;95874.66;5013133;28;19931;-49
2023/09/02 08:00:35;;;;;;;;;;;31.40;49.00;;;25.53;55.96;95877.19;5014057;28;20294;-46
2023/09/02 08:03:02;;;;;;;;;;;31.70;48.80;;;25.42;54.86;95868.75;5023710;28;19913;-46
2023/09/02 08:05:27;;;;;;;;;;;31.90;48.50;;;25.67;53.39;95874.03;5018909;28;19962;-46
2023/09/02 08:07:54;;;;;;;;;;;32.10;48.00;;;25.97;52.81;95871.59;5030648;28;19909;-51
2023/09/02 08:10:20;;;;;;;;;;;32.30;47.90;;;26.13;52.41;95874.25;5018882;28;19909;-46
2023/09/02 08:12:46;;;;;;;;;;;32.50;47.60;;;26.46;52.12;95880.03;5021657;28;19916;-49
2023/09/02 08:15:12;;;;;;;;;;;32.70;47.10;;;26.80;50.30;95869.41;5031769;28;19909;-48
2023/09/02 08:17:43;;;;;;;;;;;32.80;46.90;;;26.93;49.57;95873.53;5022050;28;20432;-48
2023/09/02 08:20:09;;;;;;;;;;;33.10;46.70;;;27.10;49.35;95872.25;5026022;28;19916;-46
2023/09/02 08:22:39;;;;;;;;;;;33.20;46.20;;;27.10;49.00;95866.00;5024213;28;19912;-47
2023/09/02 08:25:06;;;;;;;;;;;33.40;45.90;;;27.31;47.67;95865.63;5017810;28;20337;-46
2023/09/02 08:27:32;;;;;;;;;;;33.60;45.50;;;27.52;46.92;95874.16;5019192;28;19909;-47
2023/09/02 08:29:58;;;;;;;;;;;33.70;45.10;;;27.84;46.56;95873.88;5031146;28;19915;-47
2023/09/02 08:32:23;;;;;;;;;;;33.80;44.80;;;27.77;45.43;95869.09;5018034;28;20340;-48
2023/09/02 08:34:49;;;;;;;;;;;33.90;44.70;;;27.65;46.24;95874.75;5031276;28;19908;-48
2023/09/02 08:37:15;;;;;;;;;;;33.90;44.40;;;27.83;46.77;95878.59;5024367;28;19912;-47
2023/09/02 08:39:41;;;;;;;;;;;34.10;44.20;;;28.03;45.80;95878.47;5031633;28;19962;-48
2023/09/02 08:42:09;;;;;;;;;;;34.30;44.00;;;28.32;46.32;95877.66;5019785;28;20322;-48
2023/09/02 08:44:36;;;;;;;;;;;34.50;43.90;;;28.48;45.51;95882.19;5016846;28;19919;-51
2023/09/02 08:47:04;;;;;;;;;;;34.70;44.20;;;28.76;45.29;95885.25;5031278;28;19951;-47
2023/09/02 08:49:30;;;;;;;;;;;34.90;43.30;;;28.92;44.22;95889.72;5019625;28;19978;-53
2023/09/02 08:51:57;;;;;;;;;;;35.20;43.10;;;28.92;44.31;95889.72;5013903;28;19909;-53
2023/09/02 08:54:24;;;;;;;;;;;35.40;42.80;;;29.02;43.40;95887.13;5030202;28;19909;-52
2023/09/02 08:56:50;;;;;;;;;;;35.50;42.40;;;29.35;43.58;95885.47;5030144;28;19909;-52
2023/09/02 08:59:17;;;;;;;;;;;35.60;42.10;;;29.72;43.84;95882.66;5012046;28;19963;-50
2023/09/02 09:01:46;;;;;;;;;;;35.80;41.90;;;29.78;42.94;95888.59;5019757;28;20323;-50
2023/09/02 09:04:16;;;;;;;;;;;35.90;41.30;;;29.56;42.77;95892.31;5031101;28;19912;-52
2023/09/02 09:06:42;;;;;;;;;;;35.90;41.20;;;29.68;42.70;95894.78;5022233;28;20264;-50
2023/09/02 09:09:13;;;;;;;;;;;36.00;40.80;;;29.87;42.43;95896.50;5028326;28;19909;-51
2023/09/02 09:11:43;;;;;;;;;;;36.10;40.80;;;29.58;42.66;95887.22;5020197;28;19909;-47
2023/09/02 09:14:23;;;;;;;;;;;36.10;40.60;;;29.94;42.59;95889.06;5027483;28;19908;-52
2023/09/02 09:16:55;;;;;;;;;;;36.20;40.40;;;30.01;42.36;95893.81;5031305;28;20375;-48
2023/09/02 09:19:24;;;;;;;;;;;36.30;40.30;;;29.97;41.66;95887.53;5016947;28;19916;-48
2023/09/02 09:21:50;;;;;;;;;;;36.40;40.20;;;30.04;42.40;95889.53;5031401;28;20004;-52
2023/09/02 09:24:16;;;;;;;;;;;36.50;39.90;;;30.43;41.12;95889.78;5023559;28;20012;-51
2023/09/02 09:26:44;;;;;;;;;;;36.70;39.80;;;30.27;41.50;95886.53;5022726;28;19913;-47
2023/09/02 09:29:18;;;;;;;;;;;36.90;39.60;;;30.47;41.93;95874.06;5018080;28;20289;-48
2023/09/02 09:31:44;;;;;;;;;;;37.00;39.40;;;30.52;41.35;95878.41;5021741;28;20008;-49
2023/09/02 09:34:11;;;;;;;;;;;37.00;39.10;;;30.84;40.70;95873.06;5031056;28;19916;-47
2023/09/02 09:36:37;;;;;;;;;;;37.20;39.10;;;31.07;41.91;95873.47;5016539;28;19916;-49
2023/09/02 09:39:06;;;;;;;;;;;37.30;39.00;;;31.37;40.59;95874.31;5023386;28;19909;-48
2023/09/02 09:41:33;;;;;;;;;;;37.50;38.80;;;31.44;40.86;95874.34;5024607;28;19918;-48
2023/09/02 09:44:17;;;;;;;;;;;37.70;38.70;;;31.35;40.50;95880.22;5019267;28;19956;-51
2023/09/02 09:46:43;;;;;;;;;;;37.80;38.60;;;31.11;41.00;95884.47;5030391;28;19913;-48
2023/09/02 09:49:22;;;;;;;;;;;37.90;38.40;;;30.80;41.30;95884.03;5024192;28;19909;-48
2023/09/02 09:52:12;;;;;;;;;;;37.90;38.10;;;31.20;41.19;95882.13;5014902;28;20322;-50
2023/09/02 09:54:41;;;;;;;;;;;38.00;38.00;;;31.41;40.40;95875.91;5028075;28;19909;-48
2023/09/02 09:57:09;;;;;;;;;;;38.10;37.80;;;31.47;40.51;95879.06;5024193;28;20012;-48
2023/09/02 09:59:36;;;;;;;;;;;38.20;37.70;;;31.40;40.32;95873.53;5019905;28;19920;-48
2023/09/02 10:02:04;;;;;;;;;;;38.30;37.50;;;31.31;40.69;95882.94;5017219;28;19915;-54
2023/09/02 10:04:31;;;;;;;;;;;38.40;37.40;;;31.35;40.60;95874.72;5029519;28;19917;-48
2023/09/02 10:06:59;;;;;;;;;;;38.50;37.30;;;31.73;40.21;95873.13;5024954;28;19908;-52
2023/09/02 10:09:42;;;;;;;;;;;38.60;37.20;;;32.18;40.11;95876.22;5021100;28;19920;-52
2023/09/02 10:12:13;;;;;;;;;;;38.80;37.10;;;32.53;39.28;95874.56;5020933;28;19915;-51
2023/09/02 10:14:43;;;;;;;;;;;39.10;37.00;;;32.90;38.74;95879.47;5024787;28;19994;-53
2023/09/02 10:17:10;;;;;;;;;;;39.30;36.80;;;33.09;37.68;95880.97;5027701;28;19909;-51
2023/09/02 10:19:37;;;;;;;;;;;39.50;36.60;;;33.28;37.13;95865.88;5021040;28;20003;-53
2023/09/02 10:22:04;;;;;;;;;;;39.70;36.30;;;33.29;36.59;95863.91;5002914;28;19913;-55
2023/09/02 10:24:58;;;;;;;;;;;39.80;36.00;;;33.43;35.46;95863.00;5016736;28;20001;-55
2023/09/02 10:27:26;;;;;;;;;;;40.00;35.80;;;33.40;34.49;95864.59;5012300;28;20010;-52
2023/09/02 10:29:58;;;;;;;;;;;40.10;35.40;;;33.55;35.03;95857.00;5034039;28;19920;-54
2023/09/02 10:32:49;;;;;;;;;;;40.20;35.20;;;33.44;35.20;95842.47;5010955;28;19909;-49
2023/09/02 10:35:22;;;;;;;;;;;40.30;35.00;;;33.26;35.64;95856.44;5014168;28;19963;-49
2023/09/02 10:37:58;;;;;;;;;;;40.30;34.60;;;33.12;36.64;95849.81;5015668;28;19909;-51
2023/09/02 10:40:27;;;;;;;;;;;40.30;34.60;;;33.31;35.83;95854.00;5003688;28;19909;-53
2023/09/02 10:42:54;;;;;;;;;;;40.40;34.60;;;33.48;36.18;95854.28;5026439;28;19913;-47
2023/09/02 10:45:21;;;;;;;;;;;40.50;34.50;;;33.47;35.70;95845.22;5021497;28;20003;-53
2023/09/02 10:47:50;;;;;;;;;;;40.60;34.30;;;33.55;34.81;95845.97;5025413;28;19917;-51
2023/09/02 10:50:20;;;;;;;;;;;40.60;33.90;;;33.37;36.73;95841.34;5030825;28;26607;-54
2023/09/02 10:52:49;;;;;;;;;;;40.60;33.70;;;33.13;36.91;95839.59;5014617;28;19966;-53
2023/09/02 10:55:15;;;;;;;;;;;40.50;33.40;;;33.17;36.68;95841.13;5018212;28;19999;-52
2023/09/02 10:57:56;;;;;;;;;;;40.40;33.40;;;33.12;37.08;95840.75;5027085;28;19987;-50
2023/09/02 11:00:25;;;;;;;;;;;40.40;33.30;;;33.26;34.89;95840.66;5026167;28;19999;-52
2023/09/02 11:02:59;;;;;;;;;;;40.40;33.30;;;33.52;36.86;95838.50;5016802;28;19912;-52
2023/09/02 11:05:27;;;;;;;;;;;40.40;33.30;;;33.10;35.35;95838.41;5024644;28;20058;-53
2023/09/02 11:07:55;;;;;;;;;;;40.50;33.20;;;33.08;33.26;95840.78;5026231;28;19909;-49
2023/09/02 11:10:41;;;;;;;;;;;40.40;33.00;;;33.17;35.24;95832.84;5032489;28;20465;-49
2023/09/02 11:13:07;;;;;;;;;;;40.50;32.90;;;32.87;34.66;95832.63;5017881;28;19916;-52
2023/09/02 11:15:35;;;;;;;;;;;40.50;32.70;;;32.97;34.19;95837.31;5021346;28;19909;-53